Time;durP1;ratioP1;P1;durP2;ratioP2;P2;SDS_P1;SDS_P2;PMS_P1;PMS_P2;Temp;Humidity;BMP_temperature;BMP_pressure;BME280_temperature;BME280_humidity;BME280_pressure;Samples;Min_cycle;Max_cycle;Signal;HPM_P1;HPM_P2
2022/08/27 00:02:00;;;;;;;10.93;3.00;;;;;;;22.65;86.62;100009.34;4916850;29;20475;-52
2022/08/27 00:04:27;;;;;;;2.70;2.60;;;;;;;22.50;87.72;100009.75;4916390;29;20475;-52
2022/08/27 00:06:53;;;;;;;3.10;2.57;;;;;;;22.62;86.89;100017.72;4916638;29;20540;-52
2022/08/27 00:09:21;;;;;;;8.80;4.30;;;;;;;22.59;87.17;100011.69;4916478;29;20515;-52
2022/08/27 00:11:53;;;;;;;6.77;2.60;;;;;;;22.70;86.81;100023.34;4916289;29;20893;-52
2022/08/27 00:14:19;;;;;;;2.83;2.53;;;;;;;22.57;87.31;100027.19;4916215;29;20983;-52
2022/08/27 00:16:46;;;;;;;6.90;2.00;;;;;;;22.74;86.55;100023.94;4916537;29;20463;-53
2022/08/27 00:19:12;;;;;;;9.33;4.53;;;;;;;22.36;87.89;100022.56;4916471;29;20839;-52
2022/08/27 00:21:39;;;;;;;8.63;2.83;;;;;;;22.28;89.11;100018.75;4916218;29;20515;-52
2022/08/27 00:24:05;;;;;;;3.90;3.67;;;;;;;22.18;89.28;100014.09;4916318;29;20475;-53
2022/08/27 00:26:32;;;;;;;3.70;3.37;;;;;;;22.24;88.94;100020.88;4916594;29;20460;-52
2022/08/27 00:28:59;;;;;;;4.03;3.67;;;;;;;22.27;89.29;100017.03;4916291;29;20523;-53
2022/08/27 00:31:26;;;;;;;3.77;3.33;;;;;;;22.24;89.18;100012.75;4916281;29;20455;-53
2022/08/27 00:33:55;;;;;;;4.10;3.23;;;;;;;22.42;88.00;100021.19;4915948;29;20459;-52
2022/08/27 00:36:21;;;;;;;3.33;3.13;;;;;;;22.25;89.62;100024.44;4903791;29;20469;-52
2022/08/27 00:38:48;;;;;;;7.93;3.80;;;;;;;22.15;89.46;100014.34;4915931;29;21034;-52
2022/08/27 00:41:19;;;;;;;7.23;4.00;;;;;;;22.25;89.62;100008.19;4916196;29;20497;-53
2022/08/27 00:43:56;;;;;;;8.07;4.23;;;;;;;22.26;89.54;100010.75;4915967;29;20457;-52
2022/08/27 00:46:40;;;;;;;5.77;3.53;;;;;;;22.29;89.00;100004.22;4916210;29;20909;-52
2022/08/27 00:49:13;;;;;;;4.83;3.90;;;;;;;22.23;89.69;100008.31;4915890;29;20841;-52
2022/08/27 00:51:40;;;;;;;18.93;4.20;;;;;;;22.26;89.04;99999.94;4916148;29;20455;-52
2022/08/27 00:54:08;;;;;;;3.53;3.33;;;;;;;22.26;89.23;100007.19;4915141;29;20464;-53
2022/08/27 00:56:43;;;;;;;10.20;5.70;;;;;;;22.21;89.70;100006.72;4916036;29;20488;-53
2022/08/27 00:59:15;;;;;;;5.70;2.70;;;;;;;22.11;89.81;100007.47;4916036;29;20469;-52
2022/08/27 01:04:31;;;;;;;8.63;4.73;;;;;;;22.34;89.10;100005.59;4907494;29;20457;-53
2022/08/27 01:06:59;;;;;;;5.60;4.83;;;;;;;22.28;88.82;100003.38;4914802;29;20453;-53
2022/08/27 01:09:26;;;;;;;4.27;3.87;;;;;;;22.39;88.88;100003.34;4915992;29;20488;-52
2022/08/27 01:11:56;;;;;;;15.93;3.87;;;;;;;22.10;89.71;100002.16;4917815;29;20420;-53
2022/08/27 01:14:23;;;;;;;6.83;4.87;;;;;;;22.06;90.32;99996.13;4915946;29;20484;-52
2022/08/27 01:16:53;;;;;;;4.37;4.17;;;;;;;22.20;89.82;99991.44;4903628;29;20461;-52
2022/08/27 01:19:30;;;;;;;6.03;4.30;;;;;;;21.96;90.58;99992.44;4916082;29;20487;-53
2022/08/27 01:22:25;;;;;;;7.53;4.10;;;;;;;21.96;90.90;99988.84;4915749;29;20875;-53
2022/08/27 01:24:55;;;;;;;4.90;4.37;;;;;;;22.08;90.50;99983.34;4885469;29;20536;-52
2022/08/27 01:27:26;;;;;;;12.93;4.77;;;;;;;22.02;90.75;99989.22;4917327;29;20457;-53
2022/08/27 01:29:53;;;;;;;3.93;3.13;;;;;;;22.13;90.39;99983.81;4907466;29;20489;-53
2022/08/27 01:32:24;;;;;;;14.00;4.17;;;;;;;22.05;90.42;99988.97;4919827;29;20981;-52
2022/08/27 01:34:51;;;;;;;4.87;4.47;;;;;;;21.91;90.95;99980.22;4919023;29;20472;-52
2022/08/27 01:37:19;;;;;;;15.10;4.30;;;;;;;22.06;90.85;99974.47;4919182;29;20548;-52
2022/08/27 01:39:49;;;;;;;10.70;5.70;;;;;;;21.87;91.47;99983.19;4919478;29;21042;-52
2022/08/27 01:42:23;;;;;;;9.77;5.17;;;;;;;21.86;91.93;99983.31;4919356;29;20504;-52
2022/08/27 01:44:59;;;;;;;7.47;6.80;;;;;;;21.85;91.88;99981.59;4918904;29;21011;-53
2022/08/27 01:47:27;;;;;;;5.13;4.83;;;;;;;21.94;91.52;99970.03;4919115;29;20456;-52
2022/08/27 01:49:58;;;;;;;4.80;4.40;;;;;;;22.06;91.07;99973.59;4918860;29;20484;-52
2022/08/27 01:52:28;;;;;;;17.77;4.20;;;;;;;21.84;91.63;99972.63;4919022;29;20457;-52
2022/08/27 01:54:55;;;;;;;15.23;3.83;;;;;;;21.86;91.83;99969.78;4918877;29;20461;-52
2022/08/27 01:57:21;;;;;;;3.70;3.40;;;;;;;21.99;90.90;99967.81;4918993;29;20540;-52
2022/08/27 01:59:51;;;;;;;5.07;4.63;;;;;;;21.93;91.11;99972.84;4919013;29;20576;-52
2022/08/27 02:02:18;;;;;;;6.80;5.97;;;;;;;21.83;91.43;99965.47;4906857;29;20499;-52
2022/08/27 02:04:44;;;;;;;4.97;4.60;;;;;;;21.88;91.59;99973.22;4918637;29;20464;-52
2022/08/27 02:07:11;;;;;;;10.03;5.70;;;;;;;21.77;92.52;99973.22;4918934;29;20523;-52
2022/08/27 02:09:38;;;;;;;7.83;5.07;;;;;;;21.88;91.55;99975.94;4918798;29;20918;-52
2022/08/27 02:12:05;;;;;;;8.50;5.63;;;;;;;21.86;91.89;99976.06;4918741;29;20453;-52
2022/08/27 02:14:31;;;;;;;6.87;4.90;;;;;;;21.86;91.82;99972.50;4918219;29;20457;-52
2022/08/27 02:16:58;;;;;;;4.60;4.40;;;;;;;21.82;92.16;99974.59;4918503;29;20457;-52
2022/08/27 02:19:25;;;;;;;4.87;4.33;;;;;;;21.96;91.46;99980.75;4918586;29;20528;-52
2022/08/27 02:21:52;;;;;;;7.63;5.50;;;;;;;22.13;90.91;99986.53;4918656;29;20497;-52
2022/08/27 02:24:18;;;;;;;5.37;5.00;;;;;;;21.85;92.40;99984.31;4917880;29;20457;-53
2022/08/27 02:26:45;;;;;;;5.63;5.07;;;;;;;21.78;93.18;99983.06;4918479;29;20500;-53
2022/08/27 02:29:11;;;;;;;5.40;5.00;;;;;;;21.82;93.20;99982.72;4918067;29;20850;-52
2022/08/27 02:31:39;;;;;;;6.60;6.10;;;;;;;21.56;94.81;99983.91;4918704;29;20800;-52
2022/08/27 02:34:06;;;;;;;9.90;5.90;;;;;;;21.62;94.79;99982.56;4918151;29;20480;-52
2022/08/27 02:36:33;;;;;;;6.03;5.50;;;;;;;21.68;94.40;99980.25;4918495;29;20460;-52
2022/08/27 02:38:59;;;;;;;7.03;4.73;;;;;;;21.53;96.13;99987.72;4917850;29;20861;-52
2022/08/27 02:41:26;;;;;;;5.50;5.07;;;;;;;21.68;95.00;99982.09;4918329;29;20497;-52
2022/08/27 02:43:52;;;;;;;4.70;4.30;;;;;;;21.63;95.77;99984.28;4917926;29;20461;-52
2022/08/27 02:46:19;;;;;;;8.60;5.13;;;;;;;21.62;95.72;99987.97;4917941;29;20800;-52
2022/08/27 02:48:45;;;;;;;18.83;4.23;;;;;;;21.66;95.65;99984.06;4918032;29;20509;-52
2022/08/27 02:51:12;;;;;;;5.03;4.63;;;;;;;21.81;94.72;99977.41;4918329;29;20530;-52
2022/08/27 02:53:39;;;;;;;6.63;5.53;;;;;;;21.68;95.55;99982.94;4917784;29;20454;-52
2022/08/27 02:56:06;;;;;;;4.70;4.40;;;;;;;21.70;95.92;99980.13;4917874;29;20456;-53
2022/08/27 02:58:32;;;;;;;23.27;6.33;;;;;;;21.73;95.65;99975.31;4918158;29;20453;-52
2022/08/27 03:01:02;;;;;;;6.43;5.07;;;;;;;21.68;95.89;99982.94;4918295;29;20500;-52
2022/08/27 03:03:29;;;;;;;6.20;5.37;;;;;;;21.68;95.88;99985.66;4917619;29;20449;-52
2022/08/27 03:05:57;;;;;;;4.90;4.50;;;;;;;21.63;96.06;99981.56;4918039;29;20895;-52
2022/08/27 03:08:27;;;;;;;6.37;5.30;;;;;;;21.62;96.08;99987.97;4917748;29;20457;-52
2022/08/27 03:10:57;;;;;;;25.37;6.40;;;;;;;21.62;96.60;99996.94;4918032;29;20447;-53
2022/08/27 03:13:25;;;;;;;5.53;4.90;;;;;;;21.59;97.13;99992.66;4917581;29;20519;-52
2022/08/27 03:15:52;;;;;;;8.03;5.67;;;;;;;21.66;96.58;99992.19;4917784;29;20461;-52
2022/08/27 03:18:20;;;;;;;7.00;6.37;;;;;;;21.65;96.46;99996.69;4917268;29;20461;-52
2022/08/27 03:20:52;;;;;;;17.63;5.60;;;;;;;21.68;96.68;99988.38;4917607;29;20501;-52
2022/08/27 03:23:23;;;;;;;12.87;7.63;;;;;;;21.64;97.18;99994.13;4905088;29;20453;-53
2022/08/27 03:25:53;;;;;;;10.83;8.00;;;;;;;21.73;96.17;99988.84;4917848;29;20492;-52
2022/08/27 03:28:24;;;;;;;7.97;7.47;;;;;;;21.73;96.29;99983.44;4917424;29;20449;-52
2022/08/27 03:30:57;;;;;;;39.20;7.97;;;;;;;21.77;95.90;99989.44;4917277;29;21052;-52
2022/08/27 03:33:23;;;;;;;9.33;8.27;;;;;;;21.77;96.06;99987.59;4916896;29;20543;-52
2022/08/27 03:35:50;;;;;;;7.20;6.53;;;;;;;21.80;95.58;99984.69;4917084;29;20568;-52
2022/08/27 03:38:17;;;;;;;26.53;6.23;;;;;;;21.75;96.16;99981.47;4917354;29;20454;-52
2022/08/27 03:40:44;;;;;;;10.20;6.30;;;;;;;21.68;96.25;99984.78;4917225;29;20523;-52
2022/08/27 03:43:12;;;;;;;9.00;5.33;;;;;;;21.89;95.70;99978.50;4917176;29;20890;-52
2022/08/27 03:45:42;;;;;;;8.33;7.70;;;;;;;21.68;96.12;99987.50;4916771;29;20501;-52
2022/08/27 03:48:28;;;;;;;7.67;6.27;;;;;;;21.67;95.86;99986.66;4916261;29;20465;-52
2022/08/27 03:50:54;;;;;;;8.93;7.77;;;;;;;21.79;95.04;99990.19;4904157;29;20453;-52
2022/08/27 03:53:21;;;;;;;11.87;7.23;;;;;;;21.75;95.51;99986.88;4916654;29;20461;-52
2022/08/27 03:55:48;;;;;;;11.17;8.07;;;;;;;21.80;95.61;99995.50;4917092;29;20461;-52
2022/08/27 03:58:15;;;;;;;8.97;7.27;;;;;;;21.68;96.13;99991.06;4916811;29;20461;-52
2022/08/27 04:00:42;;;;;;;8.10;6.33;;;;;;;21.77;96.15;99992.16;4916827;29;20955;-52
2022/08/27 04:03:11;;;;;;;9.53;6.77;;;;;;;21.70;96.33;99983.69;4916698;29;20468;-52
2022/08/27 04:05:38;;;;;;;7.57;7.00;;;;;;;21.85;96.01;99985.16;4916389;29;20446;-52
2022/08/27 04:08:05;;;;;;;7.00;6.27;;;;;;;21.73;96.09;99974.47;4916877;29;20844;-52
2022/08/27 04:10:32;;;;;;;9.33;5.60;;;;;;;21.68;96.16;99979.38;4916599;29;20480;-52
2022/08/27 04:13:00;;;;;;;8.63;7.87;;;;;;;21.62;97.43;99969.03;4918181;29;21034;-52
2022/08/27 04:15:26;;;;;;;16.33;6.87;;;;;;;21.70;96.49;99985.53;4916561;29;20461;-52
2022/08/27 04:17:53;;;;;;;8.17;6.80;;;;;;;21.71;96.42;99973.72;4916414;29;20459;-52
2022/08/27 04:20:19;;;;;;;6.57;6.10;;;;;;;21.70;96.97;99977.41;4916449;29;20477;-52
2022/08/27 04:23:02;;;;;;;10.20;8.47;;;;;;;21.65;97.63;99975.06;4916153;29;20453;-52
2022/08/27 04:25:29;;;;;;;19.73;9.17;;;;;;;21.83;98.00;99988.97;4916464;29;20504;-52
2022/08/27 04:27:56;;;;;;;8.50;7.87;;;;;;;21.73;98.29;99988.84;4916428;29;20476;-52
2022/08/27 04:30:23;;;;;;;9.53;6.77;;;;;;;21.74;98.24;99985.16;4916351;29;20483;-52
2022/08/27 04:32:50;;;;;;;9.23;7.60;;;;;;;21.75;97.89;99986.00;4916123;29;20449;-52
2022/08/27 04:35:17;;;;;;;15.53;8.07;;;;;;;21.74;97.62;99982.44;4916323;29;20896;-52
2022/08/27 04:37:43;;;;;;;12.57;8.23;;;;;;;21.51;98.68;99994.22;4916214;29;20464;-52
2022/08/27 04:40:10;;;;;;;8.17;7.13;;;;;;;21.62;98.18;100002.34;4915830;29;20479;-52
2022/08/27 04:42:36;;;;;;;8.37;7.63;;;;;;;21.70;97.95;99999.91;4915677;29;20488;-52
2022/08/27 04:45:04;;;;;;;13.73;8.03;;;;;;;21.79;97.59;100004.63;4916437;29;20453;-52
2022/08/27 04:47:30;;;;;;;14.40;9.40;;;;;;;21.68;98.04;100007.31;4916235;29;20457;-52
2022/08/27 04:49:57;;;;;;;10.57;9.47;;;;;;;21.57;98.57;100002.72;4916068;29;21042;-52
2022/08/27 04:52:23;;;;;;;13.93;8.57;;;;;;;21.50;98.77;100012.28;4915163;29;20516;-52
2022/08/27 04:54:50;;;;;;;16.00;8.50;;;;;;;21.53;99.44;100009.38;4915877;29;20465;-52
2022/08/27 04:57:17;;;;;;;12.40;9.27;;;;;;;21.53;98.91;100008.50;4916311;29;20445;-52
2022/08/27 04:59:44;;;;;;;9.13;8.23;;;;;;;21.31;99.13;100003.91;4915859;29;20488;-52
2022/08/27 05:02:10;;;;;;;11.47;10.27;;;;;;;21.31;99.06;100012.03;4918768;29;20548;-53
2022/08/27 05:04:39;;;;;;;23.03;11.10;;;;;;;21.12;99.91;100009.84;4920111;29;20453;-52
2022/08/27 05:07:07;;;;;;;13.07;9.53;;;;;;;21.32;99.25;100018.28;4920044;29;20457;-52
2022/08/27 05:09:35;;;;;;;18.77;11.17;;;;;;;21.42;98.47;100014.75;4919846;29;20487;-52
2022/08/27 05:12:02;;;;;;;12.87;11.53;;;;;;;21.58;97.87;100020.69;4918921;29;20457;-53
2022/08/27 05:14:29;;;;;;;10.67;7.80;;;;;;;21.36;98.75;100011.66;4919730;29;20548;-52
2022/08/27 05:16:57;;;;;;;20.30;9.50;;;;;;;21.45;98.51;100013.66;4919971;29;20536;-52
2022/08/27 05:19:24;;;;;;;11.13;10.00;;;;;;;21.43;98.28;100018.31;4919643;29;20479;-52
2022/08/27 05:21:52;;;;;;;13.77;9.83;;;;;;;21.24;98.87;100021.53;4919473;29;20496;-53
2022/08/27 05:24:20;;;;;;;9.40;8.50;;;;;;;21.20;99.30;100020.91;4919824;29;20482;-53
2022/08/27 05:26:47;;;;;;;9.40;8.57;;;;;;;21.25;98.66;100016.06;4920783;29;20484;-52
2022/08/27 05:29:15;;;;;;;15.57;8.80;;;;;;;21.36;98.37;100012.50;4918987;29;20484;-53
2022/08/27 05:31:42;;;;;;;11.40;9.47;;;;;;;21.37;98.42;100011.53;4919609;29;20465;-52
2022/08/27 05:34:10;;;;;;;15.37;9.20;;;;;;;21.16;98.88;100024.00;4919121;29;20607;-52
2022/08/27 05:36:45;;;;;;;9.03;7.73;;;;;;;21.39;97.83;100015.00;4919070;29;20540;-52
2022/08/27 05:39:16;;;;;;;9.17;8.47;;;;;;;21.32;98.70;100015.59;4919657;29;20469;-53
2022/08/27 05:41:42;;;;;;;10.13;8.10;;;;;;;21.40;98.55;100018.56;4919560;29;20531;-52
2022/08/27 05:44:09;;;;;;;16.30;9.13;;;;;;;21.22;99.30;100018.97;4919349;29;20461;-52
2022/08/27 05:46:56;;;;;;;8.77;7.90;;;;;;;21.21;99.32;100021.78;4918812;29;20453;-53
2022/08/27 05:49:22;;;;;;;16.67;8.10;;;;;;;21.21;98.82;100016.38;4919485;29;20481;-53
2022/08/27 05:51:49;;;;;;;13.60;7.70;;;;;;;21.16;98.62;100013.19;4919167;29;20464;-52
2022/08/27 05:54:18;;;;;;;11.33;9.90;;;;;;;21.20;99.09;100022.75;4919416;29;20489;-52
2022/08/27 05:56:46;;;;;;;8.33;7.53;;;;;;;21.21;98.68;100017.22;4919376;29;20457;-52
2022/08/27 06:02:01;;;;;;;13.97;6.90;;;;;;;21.31;98.09;100014.72;4918841;29;20496;-51
2022/08/27 06:04:28;;;;;;;9.97;8.50;;;;;;;21.21;99.04;100019.94;4919133;29;20491;-52
2022/08/27 06:06:55;;;;;;;19.30;11.37;;;;;;;21.43;98.56;100015.63;4918871;29;20462;-52
2022/08/27 06:09:24;;;;;;;9.03;7.17;;;;;;;21.24;98.62;100016.13;4919128;29;20481;-53
2022/08/27 06:11:53;;;;;;;7.00;6.40;;;;;;;21.02;99.46;100013.38;4918501;29;20485;-53
2022/08/27 06:14:20;;;;;;;8.80;6.83;;;;;;;21.09;99.44;100011.91;4918135;29;20564;-52
2022/08/27 06:16:47;;;;;;;9.87;7.53;;;;;;;21.03;99.40;100012.38;4918809;29;20460;-51
2022/08/27 06:19:14;;;;;;;14.70;7.23;;;;;;;21.16;98.91;100014.03;4918296;29;20491;-52
2022/08/27 06:21:41;;;;;;;11.37;8.30;;;;;;;21.29;98.18;100011.28;4918569;29;20489;-50
2022/08/27 06:24:11;;;;;;;10.67;9.20;;;;;;;21.25;98.14;100015.22;4917639;29;20463;-50
2022/08/27 06:26:39;;;;;;;7.43;6.90;;;;;;;21.43;97.37;100013.78;4918248;29;20473;-50
2022/08/27 06:29:06;;;;;;;7.67;6.93;;;;;;;21.26;97.77;100023.19;4917678;29;20849;-49
2022/08/27 06:31:36;;;;;;;15.37;7.20;;;;;;;21.40;97.62;100015.88;4918467;29;20453;-50
2022/08/27 06:34:07;;;;;;;8.27;7.47;;;;;;;21.47;97.34;100020.66;4918386;29;20456;-50
2022/08/27 06:36:39;;;;;;;10.80;6.33;;;;;;;21.43;97.20;100015.63;4916900;29;20947;-49
2022/08/27 06:39:06;;;;;;;7.03;5.97;;;;;;;21.58;96.55;100023.38;4918041;29;20473;-50
2022/08/27 06:41:33;;;;;;;7.20;6.60;;;;;;;21.67;95.74;100026.38;4917726;29;20953;-49
2022/08/27 06:44:00;;;;;;;8.13;7.13;;;;;;;21.78;95.89;100023.66;4918136;29;20839;-50
2022/08/27 06:46:28;;;;;;;8.30;6.20;;;;;;;21.79;95.10;100023.56;4917588;29;20461;-50
2022/08/27 06:48:58;;;;;;;7.33;6.43;;;;;;;21.84;94.65;100032.16;4917647;29;20481;-50
2022/08/27 06:51:27;;;;;;;13.20;5.20;;;;;;;21.63;95.28;100035.69;4918014;29;20471;-50
2022/08/27 06:53:55;;;;;;;6.93;6.23;;;;;;;21.77;94.68;100028.19;4917838;29;20540;-50
2022/08/27 06:56:22;;;;;;;8.83;5.83;;;;;;;21.65;95.28;100034.56;4918142;29;20457;-50
2022/08/27 06:58:57;;;;;;;10.43;5.30;;;;;;;21.63;94.75;100036.53;4917964;29;20481;-49
2022/08/27 07:01:27;;;;;;;5.60;5.20;;;;;;;21.63;94.87;100043.81;4918384;29;20448;-54
2022/08/27 07:03:57;;;;;;;8.67;6.87;;;;;;;21.66;94.59;100040.88;4915055;29;20906;-50
2022/08/27 07:06:25;;;;;;;7.77;5.37;;;;;;;21.70;94.98;100039.66;4917029;29;20461;-50
2022/08/27 07:08:52;;;;;;;6.07;5.40;;;;;;;21.61;94.71;100043.06;4916868;29;20481;-50
2022/08/27 07:11:20;;;;;;;40.37;7.23;;;;;;;21.83;94.08;100035.00;4919874;29;20461;-50
2022/08/27 07:13:47;;;;;;;7.33;5.23;;;;;;;21.74;94.30;100046.53;4917697;29;20540;-53
2022/08/27 07:16:17;;;;;;;10.03;5.17;;;;;;;21.84;93.87;100045.69;4917231;29;21010;-52
2022/08/27 07:18:45;;;;;;;8.83;6.17;;;;;;;21.70;94.26;100045.91;4916311;29;20898;-53
2022/08/27 07:21:11;;;;;;;5.57;5.03;;;;;;;21.91;93.28;100043.34;4917822;29;20545;-52
2022/08/27 07:23:38;;;;;;;5.60;5.13;;;;;;;21.96;92.40;100048.41;4917508;29;20604;-52
2022/08/27 07:26:07;;;;;;;5.47;4.90;;;;;;;21.98;93.06;100051.84;4916036;29;20909;-52
2022/08/27 07:28:34;;;;;;;6.90;5.10;;;;;;;22.08;92.89;100048.31;4916980;29;20827;-52
2022/08/27 07:31:01;;;;;;;5.10;4.80;;;;;;;22.03;92.66;100055.03;4917544;29;20471;-52
2022/08/27 07:33:28;;;;;;;7.77;4.27;;;;;;;21.97;92.72;100053.69;4917109;29;20536;-52
2022/08/27 07:35:55;;;;;;;4.40;4.10;;;;;;;22.03;92.63;100050.50;4916729;29;20461;-52
2022/08/27 07:38:21;;;;;;;11.70;5.20;;;;;;;21.96;92.29;100056.53;4916666;29;20463;-52
2022/08/27 07:40:48;;;;;;;7.93;4.33;;;;;;;22.21;90.63;100060.88;4917142;29;20895;-53
2022/08/27 07:46:01;;;;;;;10.70;4.00;;;;;;;22.28;90.32;100068.38;4917309;29;20445;-53
2022/08/27 07:48:28;;;;;;;8.13;4.73;;;;;;;22.24;89.81;100072.31;4917218;29;20457;-53
2022/08/27 07:50:54;;;;;;;4.30;3.00;;;;;;;22.48;89.05;100077.59;4916497;29;20457;-53
2022/08/27 07:53:21;;;;;;;4.10;3.80;;;;;;;22.23;89.69;100076.00;4916854;29;20548;-53
2022/08/27 07:55:47;;;;;;;14.00;4.20;;;;;;;22.08;90.71;100066.41;4916917;29;20457;-53
2022/08/27 07:58:14;;;;;;;4.70;4.27;;;;;;;22.23;90.36;100075.16;4915587;29;20457;-53
2022/08/27 08:00:44;;;;;;;4.37;3.97;;;;;;;22.07;91.06;100073.69;4916332;29;20794;-53
2022/08/27 08:03:12;;;;;;;4.50;4.10;;;;;;;21.92;92.00;100074.84;4916246;29;20524;-52
2022/08/27 08:05:42;;;;;;;4.03;3.63;;;;;;;21.85;91.70;100079.88;4945212;29;20465;-52
2022/08/27 08:08:10;;;;;;;10.43;4.90;;;;;;;22.16;91.08;100077.47;4916562;29;20479;-52
2022/08/27 08:10:38;;;;;;;4.83;2.30;;;;;;;22.04;91.41;100082.00;4912480;29;20471;-51
2022/08/27 08:13:05;;;;;;;7.53;6.00;;;;;;;21.86;91.72;100080.75;4916212;29;20822;-52
2022/08/27 08:15:32;;;;;;;6.37;4.60;;;;;;;22.18;91.12;100084.50;4916842;29;20468;-52
2022/08/27 08:18:00;;;;;;;5.97;3.53;;;;;;;22.07;91.05;100083.66;4916762;29;20557;-52
2022/08/27 08:20:26;;;;;;;5.83;4.10;;;;;;;22.09;91.24;100087.94;4914469;29;20548;-52
2022/08/27 08:23:13;;;;;;;7.33;4.60;;;;;;;21.89;92.19;100094.91;4911853;29;20484;-52
2022/08/27 08:25:40;;;;;;;7.53;4.07;;;;;;;21.74;92.93;100096.09;4916699;29;20456;-52
2022/08/27 08:28:07;;;;;;;4.50;4.10;;;;;;;21.95;92.32;100101.69;4914631;29;20445;-52
2022/08/27 08:30:34;;;;;;;5.20;3.60;;;;;;;21.80;92.70;100101.06;4916351;29;20488;-52
2022/08/27 08:33:01;;;;;;;7.23;4.50;;;;;;;22.00;91.93;100098.59;4915945;29;20449;-52
2022/08/27 08:35:28;;;;;;;5.03;4.63;;;;;;;22.06;91.64;100104.41;4915554;29;20453;-52
2022/08/27 08:38:06;;;;;;;6.10;4.40;;;;;;;22.11;91.89;100101.38;4914809;29;20456;-52
2022/08/27 08:40:34;;;;;;;4.43;4.13;;;;;;;22.05;91.98;100105.41;4915661;29;20524;-52
2022/08/27 08:43:04;;;;;;;6.40;4.07;;;;;;;22.09;91.67;100104.19;4916250;29;20500;-52
2022/08/27 08:45:33;;;;;;;34.47;3.80;;;;;;;22.35;90.55;100099.41;4915972;29;20544;-52
2022/08/27 08:48:10;;;;;;;3.53;3.33;;;;;;;22.51;91.19;100100.88;4915914;29;20467;-52
2022/08/27 08:50:52;;;;;;;3.50;3.30;;;;;;;22.45;90.60;100103.06;4915860;29;20886;-53
2022/08/27 08:53:35;;;;;;;5.30;4.90;;;;;;;22.39;90.71;100098.16;4916133;29;20459;-54
2022/08/27 08:56:06;;;;;;;4.23;3.93;;;;;;;22.61;89.27;100099.09;4916282;29;20836;-54
2022/08/27 08:58:48;;;;;;;5.00;4.70;;;;;;;22.79;88.66;100094.91;4915762;29;20475;-53
2022/08/27 09:01:19;;;;;;;4.83;3.60;;;;;;;22.68;90.02;100095.78;4916187;29;20453;-53
2022/08/27 09:03:54;;;;;;;10.30;5.07;;;;;;;22.68;89.60;100103.91;4915590;29;20485;-53
2022/08/27 09:06:57;;;;;;;4.60;4.20;;;;;;;22.81;89.20;100095.66;4915684;29;20998;-56
2022/08/27 09:10:18;;;;;;;3.93;3.73;;;;;;;22.82;89.57;100104.63;4912408;29;20476;-52
2022/08/27 09:12:44;;;;;;;16.37;4.93;;;;;;;22.93;88.93;100113.66;4874192;29;20444;-53
2022/08/27 09:15:25;;;;;;;4.83;4.40;;;;;;;22.72;89.17;100115.38;4912653;29;20461;-53
2022/08/27 09:17:51;;;;;;;4.13;3.80;;;;;;;22.49;90.36;100111.84;4916275;29;20460;-53
2022/08/27 09:20:20;;;;;;;4.53;3.80;;;;;;;22.44;90.87;100116.75;4916220;29;20484;-53
2022/08/27 09:23:04;;;;;;;4.23;3.70;;;;;;;22.42;91.51;100127.72;4915663;29;20500;-51
2022/08/27 09:25:35;;;;;;;5.67;2.83;;;;;;;22.54;90.84;100119.59;4915934;29;20460;-54
2022/08/27 09:29:14;;;;;;;6.70;3.90;;;;;;;22.33;91.54;100117.59;4916304;29;20484;-51
2022/08/27 09:30:58;;;;;;;4.93;3.87;;;;;;;22.18;91.68;100113.41;4915798;29;20468;-52
2022/08/27 09:33:25;;;;;;;4.00;3.70;;;;;;;21.99;92.90;100116.69;4916229;29;20459;-52
2022/08/27 09:36:14;;;;;;;6.30;4.80;;;;;;;22.17;92.28;100117.97;4915905;29;20457;-53
2022/08/27 09:38:57;;;;;;;3.47;3.20;;;;;;;22.28;92.33;100117.13;4915033;29;20910;-53
2022/08/27 09:41:29;;;;;;;9.60;3.77;;;;;;;22.32;92.16;100120.44;4915905;29;20484;-53
2022/08/27 09:43:57;;;;;;;4.10;3.80;;;;;;;22.58;90.91;100123.75;4915444;29;20492;-53
2022/08/27 09:46:25;;;;;;;12.80;4.77;;;;;;;22.32;91.56;100120.44;4914808;29;20831;-51
2022/08/27 09:48:53;;;;;;;6.07;3.80;;;;;;;22.61;90.39;100118.06;4917319;29;20497;-53
2022/08/27 09:51:26;;;;;;;4.40;3.63;;;;;;;22.38;91.43;100128.09;4919176;29;20467;-53
2022/08/27 09:53:57;;;;;;;26.40;5.13;;;;;;;22.40;91.18;100126.13;4916939;29;20441;-54
2022/08/27 09:56:34;;;;;;;6.37;3.80;;;;;;;22.58;90.33;100127.31;4919180;29;20948;-52
2022/08/27 09:59:10;;;;;;;5.93;4.20;;;;;;;22.37;91.24;100121.81;4906962;29;20475;-54
2022/08/27 10:01:51;;;;;;;3.60;3.40;;;;;;;22.45;90.70;100134.72;4918992;29;20467;-53
2022/08/27 10:04:27;;;;;;;3.50;3.30;;;;;;;22.26;91.95;100123.66;4910242;29;20933;-53
2022/08/27 10:06:54;;;;;;;4.13;3.40;;;;;;;22.14;92.11;100131.75;4918973;29;20456;-52
2022/08/27 10:09:20;;;;;;;4.10;3.33;;;;;;;22.36;92.00;100130.06;4918657;29;20829;-53
2022/08/27 10:12:16;;;;;;;7.20;2.80;;;;;;;22.54;90.86;100125.00;4920687;29;20464;-52
2022/08/27 10:14:50;;;;;;;2.27;2.13;;;;;;;22.71;89.50;100127.19;4912610;29;20459;-53
2022/08/27 10:17:23;;;;;;;4.57;4.20;;;;;;;22.68;89.87;100116.59;4918450;29;20449;-53
2022/08/27 10:20:05;;;;;;;4.30;3.90;;;;;;;22.73;89.74;100117.94;4917271;29;20487;-53
2022/08/27 10:23:17;;;;;;;5.83;3.60;;;;;;;22.69;89.62;100115.63;4912234;29;21002;-53
2022/08/27 10:26:02;;;;;;;4.33;2.77;;;;;;;23.00;88.04;100116.69;4915710;29;20457;-53
2022/08/27 10:28:53;;;;;;;4.87;3.53;;;;;;;23.17;86.62;100112.59;4907549;29;20458;-56
2022/08/27 10:32:02;;;;;;;4.17;3.87;;;;;;;23.18;86.68;100115.19;4916211;29;20460;-52
2022/08/27 10:34:53;;;;;;;3.67;3.30;;;;;;;23.19;86.11;100111.47;4910127;29;20842;-51
2022/08/27 10:37:51;;;;;;;2.97;2.77;;;;;;;23.53;85.18;100122.16;4918432;29;20531;-51
2022/08/27 10:40:49;;;;;;;2.93;2.70;;;;;;;23.47;85.42;100122.72;4917727;29;20512;-52
2022/08/27 10:43:32;;;;;;;4.33;3.77;;;;;;;23.33;85.28;100116.59;4892655;29;20850;-52
2022/08/27 10:46:15;;;;;;;2.97;2.77;;;;;;;23.27;85.99;100118.94;4917584;29;20469;-52
2022/08/27 10:48:52;;;;;;;10.30;3.47;;;;;;;23.10;86.45;100123.06;4917409;29;20476;-52
2022/08/27 10:51:31;;;;;;;3.43;2.70;;;;;;;23.07;85.90;100108.94;4917487;29;20461;-52
2022/08/27 10:54:11;;;;;;;3.80;3.60;;;;;;;23.40;85.15;100110.63;4917882;29;20539;-51
2022/08/27 10:56:53;;;;;;;27.70;2.63;;;;;;;23.21;86.00;100105.91;4917503;29;20457;-51
2022/08/27 11:00:12;;;;;;;5.40;3.77;;;;;;;23.02;85.80;100112.00;4917723;29;20464;-52
2022/08/27 11:02:54;;;;;;;8.00;4.67;;;;;;;23.40;84.84;100116.91;4917184;29;20600;-52
2022/08/27 11:05:31;;;;;;;3.70;3.47;;;;;;;23.47;84.71;100107.28;4916872;29;20460;-52
2022/08/27 11:08:35;;;;;;;4.20;3.90;;;;;;;23.50;84.30;100100.72;4916902;29;20464;-51
2022/08/27 11:11:06;;;;;;;17.13;3.83;;;;;;;23.87;82.69;100106.59;4911973;29;20464;-52
2022/08/27 11:13:57;;;;;;;4.20;3.90;;;;;;;23.78;82.32;100097.41;4914132;29;20457;-52
2022/08/27 11:16:36;;;;;;;3.30;3.10;;;;;;;23.60;82.85;100094.44;4917320;29;20471;-51
2022/08/27 11:19:12;;;;;;;3.20;2.97;;;;;;;23.81;82.24;100104.41;4917627;29;20571;-52
2022/08/27 11:22:00;;;;;;;2.87;2.67;;;;;;;23.92;81.74;100107.91;4916944;29;20464;-52
2022/08/27 11:24:32;;;;;;;3.17;2.97;;;;;;;23.93;80.86;100103.34;4917173;29;20503;-52
2022/08/27 11:27:05;;;;;;;4.53;4.13;;;;;;;24.26;79.71;100095.94;4917467;29;20472;-53
2022/08/27 11:29:37;;;;;;;3.20;3.00;;;;;;;24.08;79.71;100107.44;4916912;29;20489;-52
2022/08/27 11:32:27;;;;;;;3.10;2.80;;;;;;;23.99;80.64;100107.41;4916825;29;20519;-53
2022/08/27 11:35:03;;;;;;;6.30;4.53;;;;;;;23.81;81.12;100102.56;4910479;29;20456;-52
2022/08/27 11:38:09;;;;;;;4.33;2.87;;;;;;;24.05;80.07;100102.28;4917080;29;20471;-52
2022/08/27 11:41:07;;;;;;;3.50;3.30;;;;;;;23.87;80.97;100102.03;4917224;29;20480;-52
2022/08/27 11:43:36;;;;;;;5.73;3.17;;;;;;;24.33;78.93;100100.72;4916509;29;20861;-52
2022/08/27 11:46:06;;;;;;;3.60;3.17;;;;;;;24.85;77.61;100104.19;4917044;29;20469;-52
2022/08/27 11:48:42;;;;;;;4.13;3.30;;;;;;;25.01;75.87;100098.25;4916769;29;20457;-51
2022/08/27 11:51:24;;;;;;;3.00;2.80;;;;;;;25.08;76.01;100097.56;4906475;29;20459;-52
2022/08/27 11:53:57;;;;;;;3.80;3.50;;;;;;;25.61;73.69;100091.66;4916565;29;20467;-53